sensor_id;sensor_type;location;lat;lon;timestamp;pressure;altitude;pressure_sealevel;temperature;humidity
22653;BME280;11493;43.344;26.226;2023-09-19T00:00:44;99705.16;;;14.15;100.00
22653;BME280;11493;43.344;26.226;2023-09-19T00:03:14;99691.38;;;14.07;100.00
22653;BME280;11493;43.344;26.226;2023-09-19T00:05:41;99712.50;;;14.11;100.00
22653;BME280;11493;43.344;26.226;2023-09-19T00:08:13;99692.38;;;13.94;100.00
22653;BME280;11493;43.344;26.226;2023-09-19T00:10:43;99715.63;;;14.10;100.00
22653;BME280;11493;43.344;26.226;2023-09-19T00:13:11;99706.38;;;14.06;100.00
22653;BME280;11493;43.344;26.226;2023-09-19T00:15:43;99703.94;;;13.96;100.00
22653;BME280;11493;43.344;26.226;2023-09-19T00:18:20;99707.53;;;13.96;100.00
22653;BME280;11493;43.344;26.226;2023-09-19T00:20:49;99706.03;;;13.99;100.00
22653;BME280;11493;43.344;26.226;2023-09-19T00:23:19;99699.22;;;13.96;100.00
22653;BME280;11493;43.344;26.226;2023-09-19T00:25:47;99700.34;;;13.95;100.00
22653;BME280;11493;43.344;26.226;2023-09-19T00:28:18;99690.63;;;13.80;100.00
22653;BME280;11493;43.344;26.226;2023-09-19T00:30:56;99668.34;;;13.68;100.00
22653;BME280;11493;43.344;26.226;2023-09-19T00:33:24;99688.16;;;13.88;100.00
22653;BME280;11493;43.344;26.226;2023-09-19T00:35:54;99679.56;;;13.80;100.00
22653;BME280;11493;43.344;26.226;2023-09-19T00:38:26;99692.56;;;13.89;100.00
22653;BME280;11493;43.344;26.226;2023-09-19T00:40:56;99674.84;;;13.81;100.00
22653;BME280;11493;43.344;26.226;2023-09-19T00:43:27;99688.34;;;13.82;100.00
22653;BME280;11493;43.344;26.226;2023-09-19T00:45:56;99676.31;;;13.70;100.00
22653;BME280;11493;43.344;26.226;2023-09-19T00:48:24;99682.81;;;13.65;100.00
22653;BME280;11493;43.344;26.226;2023-09-19T00:50:54;99692.41;;;13.68;100.00
22653;BME280;11493;43.344;26.226;2023-09-19T00:53:23;99697.63;;;13.69;100.00
22653;BME280;11493;43.344;26.226;2023-09-19T00:55:53;99687.03;;;13.71;100.00
22653;BME280;11493;43.344;26.226;2023-09-19T00:58:21;99688.50;;;13.69;100.00
22653;BME280;11493;43.344;26.226;2023-09-19T01:01:02;99658.75;;;13.48;100.00
22653;BME280;11493;43.344;26.226;2023-09-19T01:03:36;99689.00;;;13.62;100.00
22653;BME280;11493;43.344;26.226;2023-09-19T01:06:05;99682.50;;;13.58;100.00
22653;BME280;11493;43.344;26.226;2023-09-19T01:08:32;99657.81;;;13.36;100.00
22653;BME280;11493;43.344;26.226;2023-09-19T01:11:03;99661.22;;;13.33;100.00
22653;BME280;11493;43.344;26.226;2023-09-19T01:19:22;99683.63;;;13.40;100.00
22653;BME280;11493;43.344;26.226;2023-09-19T01:21:54;99664.94;;;13.20;100.00
22653;BME280;11493;43.344;26.226;2023-09-19T01:30:14;99666.09;;;13.27;100.00
22653;BME280;11493;43.344;26.226;2023-09-19T01:32:44;99666.56;;;13.21;100.00
22653;BME280;11493;43.344;26.226;2023-09-19T01:35:13;99664.47;;;13.26;100.00
22653;BME280;11493;43.344;26.226;2023-09-19T01:37:40;99674.72;;;13.26;100.00
22653;BME280;11493;43.344;26.226;2023-09-19T01:40:17;99656.00;;;13.23;100.00
22653;BME280;11493;43.344;26.226;2023-09-19T01:43:12;99672.09;;;13.21;100.00
22653;BME280;11493;43.344;26.226;2023-09-19T01:46:01;99674.19;;;13.15;100.00
22653;BME280;11493;43.344;26.226;2023-09-19T01:51:01;99661.66;;;13.00;100.00
22653;BME280;11493;43.344;26.226;2023-09-19T01:56:26;99649.09;;;12.86;100.00
22653;BME280;11493;43.344;26.226;2023-09-19T01:58:56;99654.16;;;12.92;100.00
22653;BME280;11493;43.344;26.226;2023-09-19T02:01:26;99643.91;;;12.84;100.00
22653;BME280;11493;43.344;26.226;2023-09-19T02:03:55;99668.13;;;12.96;100.00
22653;BME280;11493;43.344;26.226;2023-09-19T02:06:23;99652.34;;;12.88;100.00
22653;BME280;11493;43.344;26.226;2023-09-19T02:08:54;99646.00;;;12.78;100.00
22653;BME280;11493;43.344;26.226;2023-09-19T02:11:22;99660.44;;;12.75;100.00
22653;BME280;11493;43.344;26.226;2023-09-19T02:13:50;99645.63;;;12.63;100.00
22653;BME280;11493;43.344;26.226;2023-09-19T02:16:21;99628.94;;;12.59;100.00
22653;BME280;11493;43.344;26.226;2023-09-19T02:18:49;99608.78;;;12.50;100.00
22653;BME280;11493;43.344;26.226;2023-09-19T02:21:17;99642.72;;;12.68;100.00
22653;BME280;11493;43.344;26.226;2023-09-19T02:23:45;99645.00;;;12.66;100.00
22653;BME280;11493;43.344;26.226;2023-09-19T02:26:14;99646.63;;;12.67;100.00
22653;BME280;11493;43.344;26.226;2023-09-19T02:28:43;99638.84;;;12.69;100.00
22653;BME280;11493;43.344;26.226;2023-09-19T02:31:12;99640.94;;;12.63;100.00
22653;BME280;11493;43.344;26.226;2023-09-19T02:33:39;99620.94;;;12.49;100.00
22653;BME280;11493;43.344;26.226;2023-09-19T02:36:07;99631.69;;;12.59;100.00
22653;BME280;11493;43.344;26.226;2023-09-19T02:38:34;99619.00;;;12.49;100.00
22653;BME280;11493;43.344;26.226;2023-09-19T02:41:01;99635.25;;;12.60;100.00
22653;BME280;11493;43.344;26.226;2023-09-19T02:43:28;99631.53;;;12.56;100.00
22653;BME280;11493;43.344;26.226;2023-09-19T02:45:56;99609.38;;;12.38;100.00
22653;BME280;11493;43.344;26.226;2023-09-19T02:48:24;99578.97;;;12.21;100.00
22653;BME280;11493;43.344;26.226;2023-09-19T02:50:52;99604.84;;;12.42;100.00
22653;BME280;11493;43.344;26.226;2023-09-19T02:53:23;99611.69;;;12.45;100.00
22653;BME280;11493;43.344;26.226;2023-09-19T02:55:51;99580.25;;;12.15;100.00
22653;BME280;11493;43.344;26.226;2023-09-19T02:58:22;99613.41;;;12.32;100.00
22653;BME280;11493;43.344;26.226;2023-09-19T03:00:52;99605.78;;;12.29;100.00
22653;BME280;11493;43.344;26.226;2023-09-19T03:03:19;99612.44;;;12.28;100.00
22653;BME280;11493;43.344;26.226;2023-09-19T03:05:47;99610.81;;;12.27;100.00
22653;BME280;11493;43.344;26.226;2023-09-19T03:08:17;99613.25;;;12.29;100.00
22653;BME280;11493;43.344;26.226;2023-09-19T03:10:47;99611.28;;;12.29;100.00
22653;BME280;11493;43.344;26.226;2023-09-19T03:13:20;99609.63;;;12.20;100.00
22653;BME280;11493;43.344;26.226;2023-09-19T03:15:47;99603.41;;;12.05;100.00
22653;BME280;11493;43.344;26.226;2023-09-19T03:18:22;99614.97;;;12.16;100.00
22653;BME280;11493;43.344;26.226;2023-09-19T03:20:54;99608.47;;;12.12;100.00
22653;BME280;11493;43.344;26.226;2023-09-19T03:23:23;99621.94;;;12.13;100.00
22653;BME280;11493;43.344;26.226;2023-09-19T03:25:50;99594.09;;;11.93;100.00
22653;BME280;11493;43.344;26.226;2023-09-19T03:28:27;99594.09;;;11.93;100.00
22653;BME280;11493;43.344;26.226;2023-09-19T03:31:05;99619.13;;;12.05;100.00
22653;BME280;11493;43.344;26.226;2023-09-19T03:33:35;99618.97;;;12.01;100.00
22653;BME280;11493;43.344;26.226;2023-09-19T03:36:03;99623.53;;;12.06;100.00
22653;BME280;11493;43.344;26.226;2023-09-19T03:38:34;99623.16;;;11.99;100.00
22653;BME280;11493;43.344;26.226;2023-09-19T03:41:02;99589.53;;;11.79;100.00
22653;BME280;11493;43.344;26.226;2023-09-19T03:43:38;99599.78;;;11.88;100.00
22653;BME280;11493;43.344;26.226;2023-09-19T03:46:05;99634.69;;;12.01;100.00
22653;BME280;11493;43.344;26.226;2023-09-19T03:48:38;99630.75;;;11.93;100.00
22653;BME280;11493;43.344;26.226;2023-09-19T03:51:05;99635.97;;;11.95;100.00
22653;BME280;11493;43.344;26.226;2023-09-19T03:53:32;99616.69;;;11.72;100.00
22653;BME280;11493;43.344;26.226;2023-09-19T03:55:59;99637.72;;;11.91;100.00
22653;BME280;11493;43.344;26.226;2023-09-19T03:58:30;99640.97;;;11.93;100.00
22653;BME280;11493;43.344;26.226;2023-09-19T04:00:57;99630.13;;;11.88;100.00
22653;BME280;11493;43.344;26.226;2023-09-19T04:03:28;99629.84;;;11.75;100.00
22653;BME280;11493;43.344;26.226;2023-09-19T04:06:02;99611.81;;;11.69;100.00
22653;BME280;11493;43.344;26.226;2023-09-19T04:08:29;99626.50;;;11.78;100.00
22653;BME280;11493;43.344;26.226;2023-09-19T04:10:56;99633.19;;;11.86;100.00
22653;BME280;11493;43.344;26.226;2023-09-19T04:13:23;99620.84;;;11.83;100.00
22653;BME280;11493;43.344;26.226;2023-09-19T04:15:50;99625.72;;;11.87;100.00
22653;BME280;11493;43.344;26.226;2023-09-19T04:18:18;99631.25;;;11.87;100.00
22653;BME280;11493;43.344;26.226;2023-09-19T04:20:53;99600.28;;;11.67;100.00
22653;BME280;11493;43.344;26.226;2023-09-19T04:23:20;99630.44;;;11.95;100.00
22653;BME280;11493;43.344;26.226;2023-09-19T04:25:48;99636.13;;;11.98;100.00
22653;BME280;11493;43.344;26.226;2023-09-19T04:28:16;99642.16;;;12.00;100.00
22653;BME280;11493;43.344;26.226;2023-09-19T04:30:45;99626.56;;;11.96;100.00
22653;BME280;11493;43.344;26.226;2023-09-19T04:33:13;99643.97;;;12.05;100.00
22653;BME280;11493;43.344;26.226;2023-09-19T04:35:44;99650.97;;;12.11;100.00
22653;BME280;11493;43.344;26.226;2023-09-19T04:38:11;99653.22;;;12.09;100.00
22653;BME280;11493;43.344;26.226;2023-09-19T04:40:38;99641.03;;;12.01;100.00
22653;BME280;11493;43.344;26.226;2023-09-19T04:43:06;99642.19;;;12.09;100.00
22653;BME280;11493;43.344;26.226;2023-09-19T04:45:34;99645.69;;;12.23;100.00
22653;BME280;11493;43.344;26.226;2023-09-19T04:48:01;99631.22;;;12.17;100.00
22653;BME280;11493;43.344;26.226;2023-09-19T04:50:30;99652.97;;;12.19;100.00
22653;BME280;11493;43.344;26.226;2023-09-19T04:52:57;99644.06;;;12.22;100.00
22653;BME280;11493;43.344;26.226;2023-09-19T04:55:24;99660.16;;;12.29;100.00
22653;BME280;11493;43.344;26.226;2023-09-19T04:57:52;99653.03;;;12.36;100.00
22653;BME280;11493;43.344;26.226;2023-09-19T05:00:23;99635.59;;;12.18;100.00
22653;BME280;11493;43.344;26.226;2023-09-19T05:02:52;99655.63;;;12.33;100.00
22653;BME280;11493;43.344;26.226;2023-09-19T05:05:19;99643.94;;;12.36;100.00
22653;BME280;11493;43.344;26.226;2023-09-19T05:07:47;99645.59;;;12.45;100.00
22653;BME280;11493;43.344;26.226;2023-09-19T05:10:18;99638.63;;;12.48;100.00
22653;BME280;11493;43.344;26.226;2023-09-19T05:12:46;99642.41;;;12.61;100.00
22653;BME280;11493;43.344;26.226;2023-09-19T05:15:15;99647.94;;;12.61;100.00
22653;BME280;11493;43.344;26.226;2023-09-19T05:17:51;99649.69;;;12.65;100.00
22653;BME280;11493;43.344;26.226;2023-09-19T05:20:24;99642.59;;;12.81;100.00
22653;BME280;11493;43.344;26.226;2023-09-19T05:23:00;99630.25;;;12.79;100.00
22653;BME280;11493;43.344;26.226;2023-09-19T05:25:32;99645.72;;;12.97;100.00
22653;BME280;11493;43.344;26.226;2023-09-19T05:27:59;99631.44;;;13.04;100.00
22653;BME280;11493;43.344;26.226;2023-09-19T05:30:33;99613.72;;;13.05;100.00
22653;BME280;11493;43.344;26.226;2023-09-19T05:33:03;99615.22;;;13.20;100.00
22653;BME280;11493;43.344;26.226;2023-09-19T05:35:31;99632.91;;;13.44;100.00
22653;BME280;11493;43.344;26.226;2023-09-19T05:37:59;99567.91;;;13.12;100.00
22653;BME280;11493;43.344;26.226;2023-09-19T05:40:26;99596.00;;;13.40;100.00
22653;BME280;11493;43.344;26.226;2023-09-19T05:42:54;99614.81;;;13.73;100.00
22653;BME280;11493;43.344;26.226;2023-09-19T05:45:21;99599.47;;;13.93;100.00
22653;BME280;11493;43.344;26.226;2023-09-19T05:47:52;99628.63;;;14.28;100.00
22653;BME280;11493;43.344;26.226;2023-09-19T05:50:23;99583.09;;;14.17;100.00
22653;BME280;11493;43.344;26.226;2023-09-19T05:52:55;99626.06;;;14.61;100.00
22653;BME280;11493;43.344;26.226;2023-09-19T05:55:25;99612.44;;;14.77;100.00
22653;BME280;11493;43.344;26.226;2023-09-19T05:57:52;99591.22;;;14.81;100.00
22653;BME280;11493;43.344;26.226;2023-09-19T06:00:21;99601.50;;;15.01;100.00
22653;BME280;11493;43.344;26.226;2023-09-19T06:02:52;99597.69;;;15.27;100.00
22653;BME280;11493;43.344;26.226;2023-09-19T06:05:20;99616.38;;;15.59;100.00
22653;BME280;11493;43.344;26.226;2023-09-19T06:07:48;99602.19;;;15.85;100.00
22653;BME280;11493;43.344;26.226;2023-09-19T06:10:15;99584.53;;;16.02;100.00
22653;BME280;11493;43.344;26.226;2023-09-19T06:12:44;99558.41;;;16.03;100.00
22653;BME280;11493;43.344;26.226;2023-09-19T06:15:13;99618.56;;;16.48;100.00
22653;BME280;11493;43.344;26.226;2023-09-19T06:17:47;99557.72;;;16.06;100.00
22653;BME280;11493;43.344;26.226;2023-09-19T06:20:15;99616.03;;;16.55;100.00
22653;BME280;11493;43.344;26.226;2023-09-19T06:22:43;99600.88;;;16.52;100.00
22653;BME280;11493;43.344;26.226;2023-09-19T06:25:12;99617.91;;;16.75;100.00
22653;BME280;11493;43.344;26.226;2023-09-19T06:27:40;99505.66;;;16.27;100.00
22653;BME280;11493;43.344;26.226;2023-09-19T06:30:11;99613.41;;;17.11;100.00
22653;BME280;11493;43.344;26.226;2023-09-19T06:32:38;99612.66;;;17.38;100.00
22653;BME280;11493;43.344;26.226;2023-09-19T06:35:06;99602.53;;;17.46;100.00
22653;BME280;11493;43.344;26.226;2023-09-19T06:37:38;99605.81;;;17.63;100.00
22653;BME280;11493;43.344;26.226;2023-09-19T06:42:34;99601.41;;;17.62;100.00
22653;BME280;11493;43.344;26.226;2023-09-19T06:45:02;99618.81;;;17.59;100.00
22653;BME280;11493;43.344;26.226;2023-09-19T06:47:28;99616.84;;;17.60;100.00
22653;BME280;11493;43.344;26.226;2023-09-19T06:49:56;99619.16;;;17.70;100.00
22653;BME280;11493;43.344;26.226;2023-09-19T06:52:23;99566.81;;;17.48;100.00
22653;BME280;11493;43.344;26.226;2023-09-19T06:54:52;99570.13;;;17.65;100.00
22653;BME280;11493;43.344;26.226;2023-09-19T06:57:19;99576.63;;;18.01;100.00
22653;BME280;11493;43.344;26.226;2023-09-19T06:59:47;99604.22;;;18.37;100.00
22653;BME280;11493;43.344;26.226;2023-09-19T07:02:14;99522.38;;;18.11;100.00
22653;BME280;11493;43.344;26.226;2023-09-19T07:04:41;99584.56;;;18.81;100.00
22653;BME280;11493;43.344;26.226;2023-09-19T07:07:08;99575.59;;;19.07;100.00
22653;BME280;11493;43.344;26.226;2023-09-19T07:09:37;99560.97;;;19.14;99.89
22653;BME280;11493;43.344;26.226;2023-09-19T07:12:04;99562.53;;;19.30;98.81
22653;BME280;11493;43.344;26.226;2023-09-19T07:14:32;99531.31;;;19.25;97.49
22653;BME280;11493;43.344;26.226;2023-09-19T07:16:59;99480.16;;;19.17;96.84
22653;BME280;11493;43.344;26.226;2023-09-19T07:19:30;99580.75;;;19.86;96.74
22653;BME280;11493;43.344;26.226;2023-09-19T07:21:58;99583.50;;;20.05;95.88
22653;BME280;11493;43.344;26.226;2023-09-19T07:24:26;99504.25;;;19.67;94.88
22653;BME280;11493;43.344;26.226;2023-09-19T07:26:55;99571.50;;;20.27;94.32
22653;BME280;11493;43.344;26.226;2023-09-19T07:29:22;99583.13;;;20.52;93.39
22653;BME280;11493;43.344;26.226;2023-09-19T07:31:49;99564.75;;;20.51;91.98
22653;BME280;11493;43.344;26.226;2023-09-19T07:34:17;99538.78;;;20.51;91.74
22653;BME280;11493;43.344;26.226;2023-09-19T07:36:45;99549.53;;;20.75;90.30
22653;BME280;11493;43.344;26.226;2023-09-19T07:39:14;99551.72;;;20.92;89.22
22653;BME280;11493;43.344;26.226;2023-09-19T07:41:49;99463.31;;;20.51;89.24
22653;BME280;11493;43.344;26.226;2023-09-19T07:44:16;99564.31;;;21.36;87.52
22653;BME280;11493;43.344;26.226;2023-09-19T07:46:44;99567.22;;;21.43;84.42
22653;BME280;11493;43.344;26.226;2023-09-19T07:49:11;99544.69;;;21.32;83.91
22653;BME280;11493;43.344;26.226;2023-09-19T07:51:38;99505.00;;;21.23;80.60
22653;BME280;11493;43.344;26.226;2023-09-19T07:54:06;99547.53;;;21.73;79.24
22653;BME280;11493;43.344;26.226;2023-09-19T07:56:35;99508.56;;;21.57;74.88
22653;BME280;11493;43.344;26.226;2023-09-19T07:59:02;99514.75;;;21.77;71.47
22653;BME280;11493;43.344;26.226;2023-09-19T08:01:29;99452.59;;;21.60;72.19
22653;BME280;11493;43.344;26.226;2023-09-19T08:03:57;99497.03;;;22.06;71.30
22653;BME280;11493;43.344;26.226;2023-09-19T08:06:24;99541.38;;;22.45;72.68
22653;BME280;11493;43.344;26.226;2023-09-19T08:08:56;99556.28;;;22.56;72.95
22653;BME280;11493;43.344;26.226;2023-09-19T08:11:23;99555.53;;;22.62;72.24
22653;BME280;11493;43.344;26.226;2023-09-19T08:13:51;99532.28;;;22.62;71.62
22653;BME280;11493;43.344;26.226;2023-09-19T08:16:19;99531.13;;;22.70;69.68
22653;BME280;11493;43.344;26.226;2023-09-19T08:18:49;99517.22;;;22.84;68.56
22653;BME280;11493;43.344;26.226;2023-09-19T08:21:19;99501.50;;;22.76;65.16
22653;BME280;11493;43.344;26.226;2023-09-19T08:23:46;99524.09;;;22.98;65.05
22653;BME280;11493;43.344;26.226;2023-09-19T08:26:14;99493.56;;;22.82;63.27
22653;BME280;11493;43.344;26.226;2023-09-19T08:28:41;99498.38;;;22.81;62.69
22653;BME280;11493;43.344;26.226;2023-09-19T08:31:09;99522.41;;;22.82;62.96
22653;BME280;11493;43.344;26.226;2023-09-19T08:33:37;99504.69;;;22.71;63.49
22653;BME280;11493;43.344;26.226;2023-09-19T08:36:06;99511.19;;;22.82;63.66
22653;BME280;11493;43.344;26.226;2023-09-19T08:38:35;99500.38;;;22.81;63.97
22653;BME280;11493;43.344;26.226;2023-09-19T08:41:06;99472.56;;;22.58;65.70
22653;BME280;11493;43.344;26.226;2023-09-19T08:43:37;99489.16;;;22.81;66.56
22653;BME280;11493;43.344;26.226;2023-09-19T08:46:11;99502.47;;;23.02;65.45
22653;BME280;11493;43.344;26.226;2023-09-19T08:49:03;99486.44;;;23.02;65.23
22653;BME280;11493;43.344;26.226;2023-09-19T08:51:41;99458.34;;;22.95;66.40
22653;BME280;11493;43.344;26.226;2023-09-19T08:56:50;99438.72;;;23.06;67.09
22653;BME280;11493;43.344;26.226;2023-09-19T08:59:21;99498.59;;;23.42;68.65
22653;BME280;11493;43.344;26.226;2023-09-19T09:01:51;99487.38;;;23.45;69.79
22653;BME280;11493;43.344;26.226;2023-09-19T09:04:22;99482.16;;;23.51;69.40
22653;BME280;11493;43.344;26.226;2023-09-19T09:06:50;99448.03;;;23.31;69.60
22653;BME280;11493;43.344;26.226;2023-09-19T09:09:20;99443.63;;;23.37;70.23
22653;BME280;11493;43.344;26.226;2023-09-19T09:11:48;99470.97;;;23.62;68.31
22653;BME280;11493;43.344;26.226;2023-09-19T09:14:19;99459.28;;;23.52;68.12
22653;BME280;11493;43.344;26.226;2023-09-19T09:16:46;99489.06;;;23.75;67.93
22653;BME280;11493;43.344;26.226;2023-09-19T09:19:16;99427.16;;;23.28;69.78
22653;BME280;11493;43.344;26.226;2023-09-19T09:21:51;99444.44;;;23.48;68.72
22653;BME280;11493;43.344;26.226;2023-09-19T09:24:31;99464.97;;;23.67;68.80
22653;BME280;11493;43.344;26.226;2023-09-19T09:27:03;99445.69;;;23.65;69.09
22653;BME280;11493;43.344;26.226;2023-09-19T09:29:47;99436.47;;;23.72;69.28
22653;BME280;11493;43.344;26.226;2023-09-19T09:32:19;99428.03;;;23.79;67.94
22653;BME280;11493;43.344;26.226;2023-09-19T09:34:52;99412.38;;;23.78;68.07
22653;BME280;11493;43.344;26.226;2023-09-19T09:37:20;99468.97;;;24.15;65.89
22653;BME280;11493;43.344;26.226;2023-09-19T09:39:56;99464.16;;;24.19;66.17
22653;BME280;11493;43.344;26.226;2023-09-19T09:42:33;99467.38;;;24.29;66.43
22653;BME280;11493;43.344;26.226;2023-09-19T09:45:28;99458.94;;;24.43;65.30
22653;BME280;11493;43.344;26.226;2023-09-19T09:48:05;99463.28;;;24.58;64.47
22653;BME280;11493;43.344;26.226;2023-09-19T09:50:47;99441.97;;;24.61;62.60
22653;BME280;11493;43.344;26.226;2023-09-19T09:53:25;99451.19;;;24.75;64.36
22653;BME280;11493;43.344;26.226;2023-09-19T09:56:05;99401.81;;;24.56;64.32
22653;BME280;11493;43.344;26.226;2023-09-19T09:58:40;99352.50;;;24.27;64.15
22653;BME280;11493;43.344;26.226;2023-09-19T10:01:16;99435.81;;;25.05;64.42
22653;BME280;11493;43.344;26.226;2023-09-19T10:03:45;99399.72;;;24.78;63.09
22653;BME280;11493;43.344;26.226;2023-09-19T10:06:16;99441.84;;;25.03;63.12
22653;BME280;11493;43.344;26.226;2023-09-19T10:11:48;99398.56;;;24.65;61.99
22653;BME280;11493;43.344;26.226;2023-09-19T10:14:30;99383.78;;;24.47;61.44
22653;BME280;11493;43.344;26.226;2023-09-19T10:17:02;99443.13;;;24.81;62.81
22653;BME280;11493;43.344;26.226;2023-09-19T10:19:44;99421.41;;;24.78;62.20
22653;BME280;11493;43.344;26.226;2023-09-19T10:22:14;99423.06;;;24.72;62.38
22653;BME280;11493;43.344;26.226;2023-09-19T10:24:43;99360.94;;;24.31;63.21
22653;BME280;11493;43.344;26.226;2023-09-19T10:27:28;99408.22;;;24.64;63.00
22653;BME280;11493;43.344;26.226;2023-09-19T10:29:57;99424.66;;;24.73;63.90
22653;BME280;11493;43.344;26.226;2023-09-19T10:32:27;99407.75;;;24.80;64.38
22653;BME280;11493;43.344;26.226;2023-09-19T10:34:56;99387.63;;;24.81;63.99
22653;BME280;11493;43.344;26.226;2023-09-19T10:37:27;99419.66;;;25.19;62.08
22653;BME280;11493;43.344;26.226;2023-09-19T10:39:57;99416.72;;;25.34;62.40
22653;BME280;11493;43.344;26.226;2023-09-19T10:42:25;99345.72;;;25.05;59.12
22653;BME280;11493;43.344;26.226;2023-09-19T10:44:57;99411.41;;;25.46;58.12
22653;BME280;11493;43.344;26.226;2023-09-19T10:47:26;99408.22;;;25.41;57.26
22653;BME280;11493;43.344;26.226;2023-09-19T10:49:55;99380.81;;;25.48;57.01
22653;BME280;11493;43.344;26.226;2023-09-19T10:52:25;99374.22;;;25.69;56.52
22653;BME280;11493;43.344;26.226;2023-09-19T10:54:55;99394.13;;;25.96;57.58
22653;BME280;11493;43.344;26.226;2023-09-19T10:57:26;99393.47;;;26.19;56.36
22653;BME280;11493;43.344;26.226;2023-09-19T11:00:08;99403.41;;;26.34;55.08
22653;BME280;11493;43.344;26.226;2023-09-19T11:05:37;99386.50;;;26.31;56.41
22653;BME280;11493;43.344;26.226;2023-09-19T11:08:08;99343.00;;;25.94;56.49
22653;BME280;11493;43.344;26.226;2023-09-19T11:10:49;99374.72;;;26.02;56.12
22653;BME280;11493;43.344;26.226;2023-09-19T11:13:27;99391.22;;;26.03;56.27
22653;BME280;11493;43.344;26.226;2023-09-19T11:26:45;99295.03;;;25.53;56.81
22653;BME280;11493;43.344;26.226;2023-09-19T11:29:25;99396.63;;;26.25;57.43
22653;BME280;11493;43.344;26.226;2023-09-19T11:31:53;99367.28;;;26.18;55.39
22653;BME280;11493;43.344;26.226;2023-09-19T11:38:05;99336.00;;;26.06;56.07
22653;BME280;11493;43.344;26.226;2023-09-19T11:40:13;99365.22;;;26.23;55.92
22653;BME280;11493;43.344;26.226;2023-09-19T11:48:26;99366.16;;;26.12;52.39
22653;BME280;11493;43.344;26.226;2023-09-19T11:50:54;99346.66;;;25.91;53.39
22653;BME280;11493;43.344;26.226;2023-09-19T11:53:22;99358.97;;;26.04;54.51
22653;BME280;11493;43.344;26.226;2023-09-19T11:55:51;99345.59;;;26.12;54.80
22653;BME280;11493;43.344;26.226;2023-09-19T11:58:20;99350.25;;;26.29;54.41
22653;BME280;11493;43.344;26.226;2023-09-19T12:00:54;99349.41;;;26.36;54.73
22653;BME280;11493;43.344;26.226;2023-09-19T12:03:29;99354.03;;;26.53;52.77
22653;BME280;11493;43.344;26.226;2023-09-19T12:05:58;99349.47;;;26.63;53.40
22653;BME280;11493;43.344;26.226;2023-09-19T12:08:26;99333.00;;;26.58;53.56
22653;BME280;11493;43.344;26.226;2023-09-19T12:10:54;99357.94;;;26.63;54.39
22653;BME280;11493;43.344;26.226;2023-09-19T12:13:22;99337.91;;;26.54;54.42
22653;BME280;11493;43.344;26.226;2023-09-19T12:15:49;99340.34;;;26.51;54.33
22653;BME280;11493;43.344;26.226;2023-09-19T12:18:28;99338.78;;;26.47;54.36
22653;BME280;11493;43.344;26.226;2023-09-19T12:20:55;99340.44;;;26.44;55.81
22653;BME280;11493;43.344;26.226;2023-09-19T12:23:24;99292.31;;;26.21;54.17
22653;BME280;11493;43.344;26.226;2023-09-19T12:25:52;99333.22;;;26.40;55.06
22653;BME280;11493;43.344;26.226;2023-09-19T12:28:27;99319.63;;;26.28;55.05
22653;BME280;11493;43.344;26.226;2023-09-19T12:31:08;99326.06;;;26.32;54.22
22653;BME280;11493;43.344;26.226;2023-09-19T12:33:35;99273.97;;;26.06;54.68
22653;BME280;11493;43.344;26.226;2023-09-19T12:36:23;99324.84;;;26.33;55.42
22653;BME280;11493;43.344;26.226;2023-09-19T12:38:56;99261.25;;;25.94;55.53
22653;BME280;11493;43.344;26.226;2023-09-19T12:41:27;99317.19;;;26.33;53.94
22653;BME280;11493;43.344;26.226;2023-09-19T12:43:54;99321.16;;;26.39;53.92
22653;BME280;11493;43.344;26.226;2023-09-19T12:46:22;99306.72;;;26.30;52.15
22653;BME280;11493;43.344;26.226;2023-09-19T12:49:15;99322.69;;;26.44;52.32
22653;BME280;11493;43.344;26.226;2023-09-19T12:51:46;99319.03;;;26.47;53.05
22653;BME280;11493;43.344;26.226;2023-09-19T12:54:13;99295.00;;;26.35;52.37
22653;BME280;11493;43.344;26.226;2023-09-19T12:56:44;99278.44;;;26.37;51.46
22653;BME280;11493;43.344;26.226;2023-09-19T12:59:13;99269.22;;;26.33;51.78
22653;BME280;11493;43.344;26.226;2023-09-19T13:01:42;99314.00;;;26.62;51.09
22653;BME280;11493;43.344;26.226;2023-09-19T13:06:47;99304.84;;;26.54;52.13
22653;BME280;11493;43.344;26.226;2023-09-19T13:09:17;99270.09;;;26.27;52.54
22653;BME280;11493;43.344;26.226;2023-09-19T13:11:45;99315.19;;;26.64;51.59
22653;BME280;11493;43.344;26.226;2023-09-19T13:17:00;99313.78;;;26.49;52.69
22653;BME280;11493;43.344;26.226;2023-09-19T13:19:47;99264.91;;;26.22;52.78
22653;BME280;11493;43.344;26.226;2023-09-19T13:22:40;99317.34;;;26.53;52.33
22653;BME280;11493;43.344;26.226;2023-09-19T13:25:16;99282.81;;;26.42;52.28
22653;BME280;11493;43.344;26.226;2023-09-19T13:27:52;99288.00;;;26.47;52.24
22653;BME280;11493;43.344;26.226;2023-09-19T13:30:22;99276.94;;;26.60;52.21
22653;BME280;11493;43.344;26.226;2023-09-19T13:33:03;99309.97;;;26.90;52.17
22653;BME280;11493;43.344;26.226;2023-09-19T13:35:32;99311.50;;;26.98;51.42
22653;BME280;11493;43.344;26.226;2023-09-19T13:37:59;99269.78;;;26.78;51.29
22653;BME280;11493;43.344;26.226;2023-09-19T13:40:28;99293.69;;;27.01;51.96
22653;BME280;11493;43.344;26.226;2023-09-19T13:42:58;99305.19;;;27.13;51.74
22653;BME280;11493;43.344;26.226;2023-09-19T13:45:26;99267.06;;;27.02;51.98
22653;BME280;11493;43.344;26.226;2023-09-19T13:47:57;99237.41;;;26.87;50.41
22653;BME280;11493;43.344;26.226;2023-09-19T13:50:28;99236.84;;;26.72;51.06
22653;BME280;11493;43.344;26.226;2023-09-19T13:52:56;99303.94;;;27.18;51.27
22653;BME280;11493;43.344;26.226;2023-09-19T13:55:24;99295.03;;;27.20;50.73